Sevier River / Vermillion Canal




Date Battery Voltage (V) Canal Stage above Flume (ft) Canal Stage below Flume (ft) Canal Flow (cfs) Canal Gate Height (%) River Stage at Dam (ft) River Flow at Dam (cfs) Pond Stage at Gate (ft)
05/01/2017 12.99 1.09 1.28 36.8 -0.05 7 -0.05
05/02/2017 13.04 0.91 1.22 27.6 -1.53 0 -1.53
05/03/2017 13.05 1.10 1.32 37.3 -0.09 7 -0.09
05/04/2017 13.06 1.09 1.32 37.0 0.15 20 0.15
05/05/2017 13.02 1.09 1.33 36.9 0.55 65 0.55
05/06/2017 13.05 1.09 1.34 36.8 0.70 91 0.70
05/07/2017 13.05 1.10 1.39 37.5 0.78 109 0.78
05/08/2017 13.03 1.10 1.38 37.4 0.67 87 0.67
05/09/2017 12.99 1.09 1.37 36.4 0.43 44 0.43
05/10/2017 13.04 1.09 1.40 36.8 0.53 62 0.53
05/11/2017 13.05 1.09 1.35 36.6 0.59 72 0.59
05/12/2017 13.05 1.09 1.36 36.7 0.58 70 0.58
05/13/2017 13.07 1.10 1.40 37.2 0.65 83 0.65
05/14/2017 13.01 1.11 1.42 37.9 0.75 103 0.75
05/15/2017 13.03 1.09 1.39 36.7 0.50 56 0.50
05/16/2017 13.04 1.10 1.45 37.5 0.29 24 0.29
05/17/2017 13.00 1.09 1.45 36.8 0.04 4 0.04
05/18/2017 13.03 1.10 1.49 37.1 0.43 45 0.43
05/19/2017 13.05 1.06 1.43 35.3 0.31 28 0.31
05/20/2017 13.03 1.06 1.42 35.1 0.06 3 0.06
05/21/2017 13.05 1.05 1.45 34.5 -0.15 0 -0.15
05/22/2017 13.04 1.06 1.45 35.1 0.09 13 0.09
05/23/2017 13.03 1.04 1.42 34.2 0.24 19 0.24
05/24/2017 13.01 1.05 1.44 34.5 0.38 37 0.38
05/25/2017 12.91 1.06 1.42 35.3 0.62 79 0.62
05/26/2017 12.83 1.07 1.46 35.6 0.87 131 0.87
05/27/2017 13.12 1.06 1.42 35.2 0.70 95 0.70
05/28/2017 13.07 1.05 1.42 34.4 0.38 38 0.38
05/29/2017 13.05 1.05 1.40 34.5 0.37 35 0.37
05/30/2017 13.05 1.05 1.40 34.8 0.18 13 0.18
05/31/2017 13.03 0.96 1.32 30.2 -0.99 0 -0.99
Average 35.7 46
Maximum 37.9 131
Minimum 27.6 0
Total Volume (AF) 2,192.6 2,856